Aviation Digital Data Service (ADDS)

Output produced by METARs form (0532 UTC 31 October 2014)
found at http://www.aviationweather.gov/adds/metars/
 
KAOO 310453Z AUTO 22003KT 10SM 06/04 A3002 RMK AO2 SLP173 T00610039 400940044 $
KAOO 310353Z AUTO 21004KT 10SM OVC047 06/03 A3003 RMK AO2 SLP175 T00560033
KAOO 310253Z AUTO 00000KT 10SM OVC050 06/03 A3004 RMK AO2 SLP179 T00560028 56002
KAOO 310153Z AUTO 13003KT 10SM BKN050 06/02 A3004 RMK AO2 SLP179 T00560022
KAOO 310053Z AUTO 30004KT 10SM BKN050 07/03 A3004 RMK AO2 SLP179 T00670028
KAOO 302353Z AUTO 29006KT 10SM OVC045 08/03 A3004 RMK AO2 SLP179 T00780028 10094 20078 50002
KAOO 302253Z AUTO 27005KT 10SM OVC046 08/03 A3004 RMK AO2 SLP180 T00780028
KAOO 302153Z AUTO 31005KT 10SM OVC041 08/02 A3003 RMK AO2 SLP177 T00830022
KAOO 302053Z AUTO 30006KT 10SM OVC042 09/02 A3003 RMK AO2 SLP177 T00890022 55003
KAOO 301953Z AUTO 31008KT 10SM OVC044 09/02 A3003 RMK AO2 SLP177 T00890017
KAOO 301853Z AUTO 31009KT 10SM OVC040 09/02 A3003 RMK AO2 SLP176 T00890017
KAOO 301753Z AUTO 32007KT 10SM OVC041 09/02 A3004 RMK AO2 SLP179 T00890017 10094 20067 58007
KAOO 301653Z AUTO 31008KT 10SM SCT034 OVC044 09/02 A3006 RMK AO2 SLP184 T00890022
KAOO 301553Z AUTO 33009KT 10SM OVC036 08/02 A3007 RMK AO2 SLP188 T00830022
KAOO 301453Z AUTO 30007KT 10SM SCT029 BKN035 08/03 A3007 RMK AO2 SLP186 T00780028 50000
KAOO 301450Z AUTO 31005KT 10SM SCT029 BKN035 08/02 A3007 RMK AO2
KAOO 301425Z AUTO 32006KT 10SM BKN026 OVC032 08/03 A3007 RMK AO2 T00780028
KAOO 301353Z AUTO 30008KT 10SM FEW024 OVC032 08/03 A3007 RMK AO2 SLP188 T00780033
KAOO 301344Z AUTO 32006KT 10SM SCT027 OVC032 07/03 A3007 RMK AO2 T00720033
KAOO 301331Z AUTO 30006KT 10SM BKN029 BKN033 OVC055 07/03 A3007 RMK AO2 T00720028
KAOO 301253Z AUTO 30007KT 10SM SCT022 BKN032 OVC055 07/03 A3006 RMK AO2 SLP186 T00670028
KAOO 301153Z AUTO 31006KT 10SM OVC023 07/03 A3005 RMK AO2 SLP179 70001 T00670028 10078 20056 53006
KAOO 301125Z AUTO 00000KT 10SM BKN024 OVC039 06/03 A3004 RMK AO2 T00610028
KAOO 301053Z AUTO 30005KT 10SM SCT024 BKN055 06/02 A3003 RMK AO2 SLP175 T00610022
KAOO 301051Z AUTO 30004KT 10SM SCT024 BKN060 06/02 A3004 RMK AO2
KAOO 301029Z AUTO 30006KT 10SM BKN024 OVC055 07/02 A3003 RMK AO2 T00670022
KAOO 300953Z AUTO 29007KT 10SM OVC046 07/02 A3003 RMK AO2 SLP172 T00670022
KAOO 300853Z AUTO 28004KT 10SM OVC036 07/02 A3001 RMK AO2 SLP167 T00670017 51003
KAOO 300753Z AUTO 30005KT 10SM SCT032 SCT060 06/01 A3001 RMK AO2 SLP167 T00610011
KAOO 300653Z AUTO 30008KT 10SM OVC065 07/01 A3001 RMK AO2 SLP164 T00720011
KAOO 300553Z AUTO 29004KT 10SM BKN065 07/01 A3001 RMK AO2 SLP164 T00720011 10111 20072 50002
KAOO 300453Z AUTO 29006KT 10SM OVC070 08/02 A3001 RMK AO2 SLP164 T00830017 401780083
KAOO 300353Z AUTO 30007KT 10SM BKN070 09/02 A3001 RMK AO2 SLP165 T00890017
KAOO 300253Z AUTO 33007KT 10SM OVC065 10/02 A3000 RMK AO2 SLP161 T01000022 53006
KAOO 300153Z AUTO 30006KT 10SM FEW050 OVC065 11/02 A2999 RMK AO2 SLP157 T01110022
KAOO 300053Z AUTO 28005KT 10SM OVC065 11/03 A2998 RMK AO2 SLP155 T01060028
KAOO 292353Z AUTO 28005KT 10SM OVC060 11/03 A2998 RMK AO2 SLP155 T01110028 10139 20111 51017
KAOO 292253Z AUTO 28009KT 10SM OVC060 12/02 A2997 RMK AO2 SLP149 T01170017
KAOO 292153Z AUTO 28009KT 10SM BKN055 12/02 A2994 RMK AO2 SLP141 T01220017
KAOO 292053Z AUTO 28018G22KT 10SM CLR 13/02 A2993 RMK AO2 SLP135 T01280017 55003
KAOO 291953Z AUTO 26013KT 10SM CLR 14/04 A2992 RMK AO2 SLP129 T01390039
KAOO 291853Z AUTO 27017G23KT 10SM CLR 13/03 A2992 RMK AO2 SLP131 T01330028
KAOO 291753Z AUTO 28011G18KT 10SM CLR 13/04 A2994 RMK AO2 SLP136 60001 T01330044 10139 20106 58012